createdAt,value
2019-03-23T00:02:28.783Z,46.18
2019-03-23T00:05:00.847Z,46.32
2019-03-23T00:07:33.002Z,46.26
2019-03-23T00:10:05.143Z,46.37
2019-03-23T00:12:37.199Z,46.16
2019-03-23T00:15:10.655Z,46.50
2019-03-23T00:17:42.855Z,46.58
2019-03-23T00:20:14.985Z,46.24
2019-03-23T00:22:47.083Z,46.34
2019-03-23T00:25:19.224Z,46.64
2019-03-23T00:27:51.340Z,46.75
2019-03-23T00:30:23.405Z,47.07
2019-03-23T00:32:55.504Z,47.31
2019-03-23T00:35:27.582Z,47.60
2019-03-23T00:38:02.423Z,47.95
2019-03-23T00:40:34.532Z,48.20
2019-03-23T00:43:06.696Z,48.72
2019-03-23T00:45:42.140Z,49.06
2019-03-23T00:48:14.260Z,49.49
2019-03-23T00:50:46.366Z,49.84
2019-03-23T00:53:18.420Z,50.14
2019-03-23T00:55:50.548Z,50.46
2019-03-23T00:58:22.731Z,50.71
2019-03-23T01:00:54.859Z,50.98
2019-03-23T01:03:26.875Z,51.28
2019-03-23T01:05:58.992Z,51.59
2019-03-23T01:08:31.138Z,52.16
2019-03-23T01:11:03.252Z,52.58
2019-03-23T01:13:35.347Z,53.25
2019-03-23T01:16:07.497Z,53.97
2019-03-23T01:18:39.615Z,54.61
2019-03-23T01:21:11.780Z,55.23
2019-03-23T01:23:43.853Z,56.68
2019-03-23T01:26:16.061Z,57.84
2019-03-23T01:28:48.253Z,58.96
2019-03-23T01:31:20.349Z,59.46
2019-03-23T01:33:52.493Z,60.53
2019-03-23T01:36:24.578Z,61.32
2019-03-23T01:38:56.676Z,61.77
2019-03-23T01:41:28.710Z,62.43
2019-03-23T01:44:00.840Z,62.71
2019-03-23T01:46:32.988Z,62.93
2019-03-23T01:49:05.131Z,63.43
2019-03-23T01:51:37.299Z,63.61
2019-03-23T01:54:09.428Z,63.95
2019-03-23T01:56:41.547Z,64.24
2019-03-23T01:59:13.717Z,64.40
2019-03-23T02:01:45.881Z,64.76
2019-03-23T02:04:17.996Z,65.05
2019-03-23T02:06:50.073Z,65.35
2019-03-23T02:09:22.214Z,65.75
2019-03-23T02:11:54.348Z,66.03
2019-03-23T02:14:26.418Z,66.03
2019-03-23T02:16:58.540Z,66.06
2019-03-23T02:19:30.675Z,65.93
2019-03-23T02:22:02.770Z,65.72
2019-03-23T02:24:34.935Z,65.01
2019-03-23T02:27:07.086Z,64.92
2019-03-23T02:29:39.208Z,65.36
2019-03-23T02:32:11.338Z,65.48
2019-03-23T02:34:43.425Z,66.09
2019-03-23T02:37:27.250Z,66.86
2019-03-23T02:39:49.321Z,67.85
2019-03-23T02:42:21.415Z,68.97
2019-03-23T02:44:53.539Z,69.83
2019-03-23T02:47:25.679Z,70.34
2019-03-23T02:49:57.779Z,71.11
2019-03-23T02:52:29.915Z,71.68
2019-03-23T02:55:02.176Z,72.21
2019-03-23T02:57:34.322Z,73.25
2019-03-23T03:00:08.563Z,74.23
2019-03-23T03:02:40.659Z,74.76
2019-03-23T03:05:12.870Z,75.40
2019-03-23T03:07:45.009Z,75.81
2019-03-23T03:10:39.767Z,76.31
2019-03-23T03:13:11.916Z,76.72
2019-03-23T03:15:44.062Z,76.79
2019-03-23T03:18:16.208Z,77.11
2019-03-23T03:20:48.331Z,77.56
2019-03-23T03:23:21.006Z,78.11
2019-03-23T03:25:53.152Z,78.69
2019-03-23T03:28:25.278Z,78.72
2019-03-23T03:30:57.474Z,78.74
2019-03-23T03:33:29.586Z,78.69
2019-03-23T03:36:01.659Z,78.73
2019-03-23T03:38:33.834Z,79.28
2019-03-23T03:41:05.976Z,79.41
2019-03-23T03:43:38.066Z,79.54
2019-03-23T03:46:10.170Z,79.57
2019-03-23T03:48:42.296Z,79.70
2019-03-23T03:51:14.445Z,79.31
2019-03-23T03:53:46.523Z,79.71
2019-03-23T03:56:18.632Z,79.53
2019-03-23T03:58:50.759Z,80.01
2019-03-23T04:01:22.845Z,80.04
2019-03-23T04:03:55.000Z,80.02
2019-03-23T04:06:27.136Z,79.83
2019-03-23T04:08:59.237Z,79.71
2019-03-23T04:11:31.410Z,79.50
2019-03-23T04:14:03.532Z,79.68
2019-03-23T04:16:35.680Z,79.56
2019-03-23T04:19:07.772Z,79.78
2019-03-23T04:21:39.872Z,79.90
2019-03-23T04:24:11.987Z,80.13
2019-03-23T04:26:44.184Z,80.31
2019-03-23T04:29:16.249Z,80.29
2019-03-23T04:31:48.337Z,80.56
2019-03-23T04:34:20.453Z,81.29
2019-03-23T04:36:52.570Z,81.53
2019-03-23T04:39:24.607Z,81.39
2019-03-23T04:41:56.716Z,81.29
2019-03-23T04:44:28.857Z,80.42
2019-03-23T04:47:00.974Z,80.47
2019-03-23T04:49:33.118Z,80.05
2019-03-23T04:52:05.243Z,80.12
2019-03-23T04:54:38.964Z,79.98
2019-03-23T04:57:11.254Z,79.99
2019-03-23T04:59:43.379Z,79.90
2019-03-23T05:02:17.836Z,79.62
2019-03-23T05:04:49.971Z,79.39
2019-03-23T05:07:22.127Z,79.59
2019-03-23T05:09:54.297Z,79.59
2019-03-23T05:12:26.507Z,79.55
2019-03-23T05:14:58.653Z,79.50
2019-03-23T05:17:30.856Z,79.64
2019-03-23T05:20:02.939Z,79.49
2019-03-23T05:22:35.042Z,79.07
2019-03-23T05:25:09.169Z,79.08
2019-03-23T05:27:41.316Z,79.04
2019-03-23T05:30:13.492Z,78.79
2019-03-23T05:32:45.547Z,78.42
2019-03-23T05:35:17.649Z,78.40
2019-03-23T05:37:49.690Z,78.05
2019-03-23T05:40:21.727Z,78.07
2019-03-23T05:42:53.886Z,77.83
2019-03-23T05:45:25.896Z,78.38
2019-03-23T05:47:58.006Z,78.51
2019-03-23T05:50:30.203Z,78.54
2019-03-23T05:53:02.407Z,78.76
2019-03-23T05:55:34.547Z,78.57
2019-03-23T05:58:06.656Z,78.64
2019-03-23T06:00:38.781Z,78.50
2019-03-23T06:03:10.885Z,78.19
2019-03-23T06:05:42.949Z,78.13
2019-03-23T06:08:15.079Z,78.25
2019-03-23T06:10:47.251Z,78.20
2019-03-23T06:13:19.391Z,78.18
2019-03-23T06:15:51.491Z,78.00
2019-03-23T06:18:23.642Z,77.62
2019-03-23T06:20:55.754Z,77.51
2019-03-23T06:23:27.851Z,77.09
2019-03-23T06:25:59.993Z,76.70
2019-03-23T06:28:32.104Z,76.41
2019-03-23T06:31:04.238Z,76.63
2019-03-23T06:33:38.774Z,76.64
2019-03-23T06:36:10.926Z,76.56
2019-03-23T06:38:43.042Z,76.21
2019-03-23T06:41:15.189Z,76.30
2019-03-23T06:43:47.321Z,76.53
2019-03-23T06:46:19.418Z,76.63
2019-03-23T06:48:51.587Z,76.59
2019-03-23T06:51:23.744Z,76.32
2019-03-23T06:53:55.885Z,76.43
2019-03-23T06:56:28.033Z,76.36
2019-03-23T06:59:00.216Z,76.31
2019-03-23T07:01:32.384Z,76.25
2019-03-23T07:04:04.618Z,75.79
2019-03-23T07:06:36.763Z,75.95
2019-03-23T07:09:16.211Z,75.60
2019-03-23T07:11:43.458Z,75.99
2019-03-23T07:14:17.159Z,75.75
2019-03-23T07:16:52.051Z,75.25
2019-03-23T07:19:24.254Z,75.20
2019-03-23T07:21:56.414Z,75.31
2019-03-23T07:24:28.607Z,74.99
2019-03-23T07:27:01.066Z,75.08
2019-03-23T07:29:33.237Z,75.03
2019-03-23T07:32:06.250Z,74.81
2019-03-23T07:34:40.774Z,74.55
2019-03-23T07:37:12.829Z,74.22
2019-03-23T07:39:45.115Z,73.62
2019-03-23T07:42:17.321Z,72.93
2019-03-23T07:44:49.471Z,73.37
2019-03-23T07:47:21.619Z,72.98
2019-03-23T07:49:53.743Z,73.16
2019-03-23T07:52:25.861Z,73.02
2019-03-23T07:55:00.453Z,72.95
2019-03-23T07:57:32.541Z,72.52
2019-03-23T08:00:05.115Z,72.45
2019-03-23T08:02:37.270Z,72.37
2019-03-23T08:05:10.246Z,72.31
2019-03-23T08:07:42.368Z,72.44
2019-03-23T08:10:30.500Z,72.30
2019-03-23T08:13:03.127Z,71.70
2019-03-23T08:15:35.235Z,70.97
2019-03-23T08:18:07.424Z,70.40
2019-03-23T08:20:39.488Z,70.04
2019-03-23T08:23:11.652Z,69.66
2019-03-23T08:25:43.746Z,69.84
2019-03-23T08:28:15.927Z,69.83
2019-03-23T08:30:48.095Z,69.08
2019-03-23T08:33:20.215Z,68.23
2019-03-23T08:35:52.363Z,68.32
2019-03-23T08:38:24.507Z,68.15
2019-03-23T08:40:56.631Z,67.71
2019-03-23T08:43:28.774Z,67.71
2019-03-23T08:46:00.922Z,67.56
2019-03-23T08:48:33.070Z,67.46
2019-03-23T08:51:05.221Z,67.27
2019-03-23T08:53:37.283Z,67.04
2019-03-23T08:56:12.277Z,66.78
2019-03-23T08:58:41.120Z,66.46
2019-03-23T09:01:13.224Z,66.74
2019-03-23T09:03:52.476Z,66.57
2019-03-23T09:06:19.213Z,66.64
2019-03-23T09:08:51.410Z,66.66
2019-03-23T09:11:23.570Z,66.38
2019-03-23T09:13:55.622Z,66.16
2019-03-23T09:16:27.792Z,65.71
2019-03-23T09:18:59.904Z,65.94
2019-03-23T09:21:31.963Z,65.84
2019-03-23T09:24:04.023Z,65.39
2019-03-23T09:26:36.147Z,65.50
2019-03-23T09:29:08.254Z,65.26
2019-03-23T09:31:40.382Z,64.90
2019-03-23T09:34:12.557Z,64.62
2019-03-23T09:36:44.703Z,64.70
2019-03-23T09:39:16.829Z,64.70
2019-03-23T09:41:49.081Z,64.49
2019-03-23T09:44:21.226Z,64.28
2019-03-23T09:46:53.385Z,64.34
2019-03-23T09:49:25.546Z,64.42
2019-03-23T09:51:57.689Z,64.27
2019-03-23T09:54:29.779Z,64.19
2019-03-23T09:57:01.918Z,64.59
2019-03-23T09:59:34.075Z,65.06
2019-03-23T10:02:06.257Z,65.00
2019-03-23T10:04:38.380Z,64.87
2019-03-23T10:07:10.507Z,64.93
2019-03-23T10:09:42.640Z,64.92
2019-03-23T10:12:14.712Z,65.00
2019-03-23T10:14:46.828Z,65.21
2019-03-23T10:17:18.953Z,64.78
2019-03-23T10:19:51.130Z,64.88
2019-03-23T10:22:23.288Z,65.12
2019-03-23T10:24:55.424Z,65.09
2019-03-23T10:27:27.665Z,65.03
2019-03-23T10:29:59.883Z,64.58
2019-03-23T10:32:32.016Z,64.17
2019-03-23T10:35:04.365Z,63.58
2019-03-23T10:37:36.510Z,63.19
2019-03-23T10:40:09.050Z,62.04
2019-03-23T10:42:43.244Z,60.30
2019-03-23T10:45:15.183Z,60.05
2019-03-23T10:47:47.404Z,58.45
2019-03-23T10:50:19.588Z,58.51
2019-03-23T10:52:51.646Z,58.05
2019-03-23T10:55:23.735Z,58.31
2019-03-23T10:57:55.947Z,58.46
2019-03-23T11:00:28.072Z,57.37
2019-03-23T11:03:00.264Z,57.79
2019-03-23T11:05:32.356Z,57.59
2019-03-23T11:08:04.510Z,56.83
2019-03-23T11:10:41.774Z,56.10
2019-03-23T11:13:10.513Z,55.47
2019-03-23T11:15:42.731Z,55.31
2019-03-23T11:18:14.903Z,55.30
2019-03-23T11:20:47.060Z,54.76
2019-03-23T11:23:19.273Z,54.59
2019-03-23T11:25:51.318Z,54.49
2019-03-23T11:28:23.503Z,54.44
2019-03-23T11:30:55.665Z,54.04
2019-03-23T11:33:27.759Z,53.73
2019-03-23T11:35:59.893Z,52.33
2019-03-23T11:38:32.025Z,52.43
2019-03-23T11:41:04.361Z,51.47
2019-03-23T11:43:36.489Z,51.29
2019-03-23T11:46:08.600Z,49.28
2019-03-23T11:48:40.744Z,48.53
2019-03-23T11:51:12.871Z,48.21
2019-03-23T11:53:44.998Z,48.14
2019-03-23T11:56:17.271Z,47.51
2019-03-23T11:58:49.448Z,46.88
2019-03-23T12:01:21.597Z,45.40
2019-03-23T12:03:53.720Z,44.25
2019-03-23T12:06:26.083Z,44.16
2019-03-23T12:08:58.253Z,43.29
2019-03-23T12:11:30.462Z,43.18
2019-03-23T12:14:02.630Z,43.13
2019-03-23T12:16:34.689Z,42.11
2019-03-23T12:19:06.851Z,42.35
2019-03-23T12:21:38.953Z,41.80
2019-03-23T12:24:11.037Z,42.06
2019-03-23T12:26:43.144Z,43.50
2019-03-23T12:29:15.267Z,43.99
2019-03-23T12:31:47.410Z,44.74
2019-03-23T12:34:19.577Z,45.44
2019-03-23T12:36:51.670Z,46.26
2019-03-23T12:39:23.731Z,46.20
2019-03-23T12:41:55.898Z,46.59
2019-03-23T12:44:28.004Z,46.39
2019-03-23T12:47:00.132Z,46.15
2019-03-23T12:49:32.281Z,45.44
2019-03-23T12:52:04.427Z,45.28
2019-03-23T12:54:36.577Z,45.76
2019-03-23T12:57:08.715Z,45.59
2019-03-23T12:59:40.736Z,46.20
2019-03-23T13:02:12.831Z,46.31
2019-03-23T13:04:44.881Z,47.16
2019-03-23T13:07:17.000Z,47.01
2019-03-23T13:09:49.070Z,47.37
2019-03-23T13:12:21.164Z,47.41
2019-03-23T13:14:53.437Z,46.95
2019-03-23T13:17:25.569Z,47.02
2019-03-23T13:19:57.689Z,47.36
2019-03-23T13:22:29.851Z,46.83
2019-03-23T13:25:01.912Z,47.38
2019-03-23T13:27:33.975Z,47.21
2019-03-23T13:30:07.426Z,47.22
2019-03-23T13:32:39.580Z,47.35
2019-03-23T13:35:11.703Z,47.47
2019-03-23T13:37:43.907Z,47.67
2019-03-23T13:40:16.198Z,47.61
2019-03-23T13:42:48.379Z,47.63
2019-03-23T13:45:20.484Z,48.05
2019-03-23T13:47:54.794Z,48.32
2019-03-23T13:50:30.103Z,48.44
2019-03-23T13:53:02.266Z,48.60
2019-03-23T13:55:36.167Z,48.50
2019-03-23T13:58:12.823Z,48.78
2019-03-23T14:00:45.019Z,49.07
2019-03-23T14:03:17.134Z,49.33
2019-03-23T14:05:49.239Z,49.05
2019-03-23T14:08:21.385Z,49.14
2019-03-23T14:10:53.531Z,49.54
2019-03-23T14:13:27.739Z,49.53
2019-03-23T14:15:59.767Z,49.57
2019-03-23T14:18:31.899Z,50.42
2019-03-23T14:21:04.115Z,50.52
2019-03-23T14:23:36.222Z,51.08
2019-03-23T14:26:08.272Z,51.12
2019-03-23T14:28:40.487Z,51.33
2019-03-23T14:31:12.697Z,52.08
2019-03-23T14:33:44.825Z,52.56
2019-03-23T14:36:16.958Z,53.00
2019-03-23T14:38:49.081Z,53.44
2019-03-23T14:41:21.105Z,53.82
2019-03-23T14:43:53.223Z,54.06
2019-03-23T14:46:25.354Z,54.12
2019-03-23T14:49:01.807Z,54.44
2019-03-23T14:51:31.317Z,54.74
2019-03-23T14:54:03.509Z,54.95
2019-03-23T14:56:35.704Z,55.05
2019-03-23T14:59:07.861Z,55.20
2019-03-23T15:01:39.904Z,55.38
2019-03-23T15:04:12.021Z,55.66
2019-03-23T15:06:44.137Z,55.84
2019-03-23T15:09:16.316Z,56.04
2019-03-23T15:11:48.438Z,56.33
2019-03-23T15:14:20.484Z,56.40
2019-03-23T15:16:52.632Z,56.36
2019-03-23T15:19:25.097Z,56.38
2019-03-23T15:21:57.294Z,56.61
2019-03-23T15:24:29.460Z,56.79
2019-03-23T15:27:01.531Z,56.85
2019-03-23T15:29:33.718Z,56.94
2019-03-23T15:32:05.842Z,57.10
2019-03-23T15:34:37.970Z,57.49
2019-03-23T15:37:10.107Z,57.69
2019-03-23T15:39:42.314Z,57.66
2019-03-23T15:42:24.259Z,57.91
2019-03-23T15:44:48.237Z,57.97
2019-03-23T15:47:20.398Z,58.26
2019-03-23T15:49:52.486Z,58.68
2019-03-23T15:52:24.565Z,58.99
2019-03-23T15:54:56.617Z,59.06
2019-03-23T15:57:28.706Z,59.16
2019-03-23T16:00:00.728Z,59.39
2019-03-23T16:02:32.854Z,59.56
2019-03-23T16:05:05.673Z,59.34
2019-03-23T16:07:37.841Z,59.51
2019-03-23T16:10:10.383Z,59.64
2019-03-23T16:12:42.532Z,59.76
2019-03-23T16:15:15.290Z,59.88
2019-03-23T16:17:47.428Z,60.11
2019-03-23T16:20:19.619Z,60.38
2019-03-23T16:22:51.764Z,60.49
2019-03-23T16:25:23.914Z,60.79
2019-03-23T16:27:56.136Z,61.02
2019-03-23T16:30:34.894Z,61.44
2019-03-23T16:33:07.046Z,61.51
2019-03-23T16:35:39.236Z,61.94
2019-03-23T16:38:11.337Z,62.32
2019-03-23T16:40:43.487Z,62.64
2019-03-23T16:43:15.691Z,62.90
2019-03-23T16:45:47.801Z,63.02
2019-03-23T16:48:19.960Z,63.05
2019-03-23T16:50:52.085Z,63.44
2019-03-23T16:53:24.221Z,63.81
2019-03-23T16:55:57.454Z,64.14
2019-03-23T16:58:29.550Z,64.42
2019-03-23T17:01:01.545Z,64.69
2019-03-23T17:03:33.692Z,64.92
2019-03-23T17:06:05.829Z,65.10
2019-03-23T17:08:38.002Z,65.25
2019-03-23T17:11:10.071Z,65.47
2019-03-23T17:13:42.185Z,65.75
2019-03-23T17:16:14.278Z,65.97
2019-03-23T17:18:46.428Z,66.18
2019-03-23T17:21:18.557Z,66.41
2019-03-23T17:23:50.670Z,66.47
2019-03-23T17:26:22.783Z,66.53
2019-03-23T17:28:54.939Z,66.84
2019-03-23T17:31:27.067Z,66.95
2019-03-23T17:33:59.225Z,67.07
2019-03-23T17:36:31.272Z,67.04
2019-03-23T17:39:05.022Z,67.14
2019-03-23T17:41:37.122Z,67.28
2019-03-23T17:44:09.254Z,67.39
2019-03-23T17:46:41.395Z,67.37
2019-03-23T17:49:13.526Z,67.60
2019-03-23T17:51:45.671Z,67.84
2019-03-23T17:54:17.811Z,67.94
2019-03-23T17:56:49.992Z,68.27
2019-03-23T17:59:22.146Z,68.61
2019-03-23T18:01:54.337Z,68.84
2019-03-23T18:04:26.357Z,69.36
2019-03-23T18:06:58.509Z,69.88
2019-03-23T18:09:30.639Z,71.18
2019-03-23T18:12:02.784Z,72.68
2019-03-23T18:14:34.907Z,73.89
2019-03-23T18:17:07.060Z,74.74
2019-03-23T18:19:39.254Z,75.51
2019-03-23T18:22:11.405Z,76.21
2019-03-23T18:24:43.545Z,77.00
2019-03-23T18:27:15.748Z,77.34
2019-03-23T18:29:47.903Z,78.30
2019-03-23T18:32:20.126Z,78.61
2019-03-23T18:34:52.231Z,78.63
2019-03-23T18:37:24.391Z,78.70
2019-03-23T18:39:56.528Z,79.30
2019-03-23T18:42:28.632Z,79.73
2019-03-23T18:45:00.788Z,80.29
2019-03-23T18:47:32.892Z,80.63
2019-03-23T18:50:05.316Z,80.77
2019-03-23T18:52:37.436Z,80.74
2019-03-23T18:55:09.813Z,80.49
2019-03-23T18:57:41.955Z,80.91
2019-03-23T19:00:18.229Z,81.07
2019-03-23T19:02:50.369Z,79.82
2019-03-23T19:05:22.503Z,79.66
2019-03-23T19:07:54.673Z,79.79
2019-03-23T19:10:26.821Z,79.94
2019-03-23T19:12:58.967Z,79.32
2019-03-23T19:15:31.298Z,79.58
2019-03-23T19:18:03.400Z,79.82
2019-03-23T19:20:35.494Z,79.85
2019-03-23T19:23:08.034Z,80.29
2019-03-23T19:25:40.105Z,80.04
2019-03-23T19:28:12.172Z,79.77
2019-03-23T19:30:44.237Z,79.94
2019-03-23T19:33:16.303Z,80.30
2019-03-23T19:35:48.315Z,80.52
2019-03-23T19:38:20.371Z,80.61
2019-03-23T19:40:52.428Z,80.45
2019-03-23T19:43:24.407Z,80.70
2019-03-23T19:45:56.571Z,80.88
2019-03-23T19:48:28.772Z,80.90
2019-03-23T19:51:00.902Z,80.98
2019-03-23T19:53:33.101Z,81.00
2019-03-23T19:56:05.271Z,81.62
2019-03-23T19:58:37.457Z,81.28
2019-03-23T20:01:09.600Z,81.41
2019-03-23T20:03:41.751Z,81.56
2019-03-23T20:06:13.926Z,81.65
2019-03-23T20:08:46.038Z,82.04
2019-03-23T20:11:18.286Z,81.37
2019-03-23T20:13:58.455Z,81.26
2019-03-23T20:16:24.258Z,81.58
2019-03-23T20:18:56.385Z,81.02
2019-03-23T20:21:28.509Z,80.78
2019-03-23T20:24:00.652Z,81.11
2019-03-23T20:26:32.920Z,80.45
2019-03-23T20:29:05.031Z,80.11
2019-03-23T20:31:37.182Z,78.70
2019-03-23T20:34:09.348Z,78.76
2019-03-23T20:36:41.531Z,79.34
2019-03-23T20:39:13.825Z,79.29
2019-03-23T20:41:45.955Z,79.39
2019-03-23T20:44:18.081Z,79.28
2019-03-23T20:46:50.343Z,78.83
2019-03-23T20:49:23.263Z,78.68
2019-03-23T20:51:55.821Z,78.72
2019-03-23T20:54:27.953Z,79.16
2019-03-23T20:57:00.197Z,79.37
2019-03-23T20:59:32.298Z,79.09
2019-03-23T21:02:04.471Z,78.98
2019-03-23T21:04:36.695Z,79.03
2019-03-23T21:07:08.910Z,78.93
2019-03-23T21:09:41.077Z,79.10
2019-03-23T21:12:13.187Z,79.19
2019-03-23T21:14:45.399Z,78.46
2019-03-23T21:17:35.278Z,77.98
2019-03-23T21:20:18.350Z,78.37
2019-03-23T21:23:09.392Z,78.37
2019-03-23T21:25:53.630Z,78.48
2019-03-23T21:28:36.535Z,77.97
2019-03-23T21:31:20.163Z,77.69
2019-03-23T21:34:11.121Z,77.70
2019-03-23T21:37:02.003Z,77.24
2019-03-23T21:39:45.559Z,76.90
2019-03-23T21:42:36.517Z,77.39
2019-03-23T21:45:19.588Z,77.59
2019-03-23T21:48:10.531Z,77.25
2019-03-23T21:50:53.370Z,76.96
2019-03-23T21:53:44.313Z,77.02
2019-03-23T21:56:27.448Z,77.07
2019-03-23T21:59:18.385Z,77.47
2019-03-23T22:02:01.462Z,76.68
2019-03-23T22:04:52.448Z,76.33
2019-03-23T22:07:35.378Z,76.33
2019-03-23T22:10:26.366Z,75.59
2019-03-23T22:13:17.265Z,76.12
2019-03-23T22:16:00.661Z,76.53
2019-03-23T22:18:51.547Z,75.73
2019-03-23T22:21:34.396Z,75.17
2019-03-23T22:24:25.319Z,75.21
2019-03-23T22:27:08.980Z,74.87
2019-03-23T22:29:59.902Z,74.59
2019-03-23T22:32:42.730Z,73.87
2019-03-23T22:35:33.630Z,73.75
2019-03-23T22:38:17.281Z,73.72
2019-03-23T22:41:08.215Z,73.50
2019-03-23T22:43:51.672Z,73.31
2019-03-23T22:46:42.590Z,72.67
2019-03-23T22:49:25.471Z,72.64
2019-03-23T22:52:16.385Z,72.55
2019-03-23T22:54:59.570Z,72.31
2019-03-23T22:57:50.478Z,72.51
2019-03-23T23:00:52.331Z,72.89
2019-03-23T23:03:43.355Z,73.17
2019-03-23T23:06:27.108Z,73.73
2019-03-23T23:09:18.060Z,74.15
2019-03-23T23:12:01.507Z,74.03
2019-03-23T23:14:53.714Z,74.54
2019-03-23T23:17:57.120Z,74.46
2019-03-23T23:20:48.054Z,74.85
2019-03-23T23:23:30.854Z,74.84
2019-03-23T23:26:21.814Z,74.75
2019-03-23T23:29:05.028Z,75.29
2019-03-23T23:31:55.992Z,75.31
2019-03-23T23:34:46.917Z,75.57
2019-03-23T23:37:29.817Z,76.28
2019-03-23T23:40:20.715Z,76.31
2019-03-23T23:43:04.249Z,76.56
2019-03-23T23:45:55.177Z,76.81
2019-03-23T23:48:38.182Z,76.50
2019-03-23T23:51:29.087Z,76.36
2019-03-23T23:54:12.401Z,76.89
2019-03-23T23:57:03.329Z,77.13
2019-03-23T23:59:46.999Z,77.54
